createdAt,value
2017-11-19T00:01:33.216Z,94042.23
2017-11-19T00:04:00.945Z,94048.87
2017-11-19T00:06:28.692Z,94048.70
2017-11-19T00:08:56.511Z,94052.25
2017-11-19T00:11:24.303Z,94055.08
2017-11-19T00:13:52.065Z,94041.20
2017-11-19T00:16:19.886Z,94044.43
2017-11-19T00:18:47.709Z,94039.70
2017-11-19T00:21:15.473Z,94032.45
2017-11-19T00:23:43.756Z,94026.70
2017-11-19T00:26:11.485Z,94032.94
2017-11-19T00:28:39.222Z,94037.20
2017-11-19T00:31:06.926Z,94034.98
2017-11-19T00:33:34.690Z,94023.11
2017-11-19T00:36:02.804Z,94020.47
2017-11-19T00:38:30.553Z,94022.18
2017-11-19T00:40:58.266Z,94020.02
2017-11-19T00:43:28.789Z,94019.58
2017-11-19T00:45:56.773Z,94011.16
2017-11-19T00:48:24.459Z,94001.85
2017-11-19T00:50:52.134Z,94008.05
2017-11-19T00:53:19.854Z,94012.80
2017-11-19T00:55:47.525Z,94011.20
2017-11-19T00:58:15.277Z,93998.59
2017-11-19T01:00:43.007Z,93999.38
2017-11-19T01:03:10.759Z,94008.06
2017-11-19T01:05:38.477Z,94010.30
2017-11-19T01:08:06.176Z,94004.30
2017-11-19T01:10:33.841Z,94010.13
2017-11-19T01:13:01.623Z,94007.37
2017-11-19T01:15:29.393Z,93998.52
2017-11-19T01:17:57.923Z,94001.17
2017-11-19T01:20:25.597Z,94000.73
2017-11-19T01:22:53.335Z,93995.17
2017-11-19T01:25:21.021Z,93984.15
2017-11-19T01:27:48.774Z,93985.48
2017-11-19T01:30:16.510Z,93986.58
2017-11-19T01:32:44.223Z,93981.00
2017-11-19T01:35:11.995Z,93985.33
2017-11-19T01:37:39.950Z,93981.54
2017-11-19T01:40:07.709Z,93974.75
2017-11-19T01:42:35.474Z,93973.56
2017-11-19T01:45:03.522Z,93968.94
2017-11-19T01:47:31.315Z,93969.26
2017-11-19T01:49:59.049Z,93979.96
2017-11-19T01:52:26.862Z,93967.39
2017-11-19T01:54:54.536Z,93972.92
2017-11-19T01:57:22.230Z,93960.36
2017-11-19T01:59:50.017Z,93958.50
2017-11-19T02:02:29.429Z,93939.63
2017-11-19T02:04:57.263Z,93945.77
2017-11-19T02:07:25.044Z,93936.64
2017-11-19T02:09:52.741Z,93934.36
2017-11-19T02:12:20.435Z,93926.17
2017-11-19T02:14:48.211Z,93929.62
2017-11-19T02:17:16.015Z,93926.87
2017-11-19T02:19:43.779Z,93924.24
2017-11-19T02:22:11.514Z,93927.91
2017-11-19T02:24:39.291Z,93931.59
2017-11-19T02:27:06.997Z,93923.41
2017-11-19T02:29:34.746Z,93909.55
2017-11-19T02:32:02.447Z,93919.17
2017-11-19T02:34:30.226Z,93909.83
2017-11-19T02:36:57.961Z,93911.13
2017-11-19T02:39:25.711Z,93908.39
2017-11-19T02:41:53.429Z,93911.61
2017-11-19T02:44:21.190Z,93908.36
2017-11-19T02:46:48.882Z,93903.62
2017-11-19T02:49:16.624Z,93898.75
2017-11-19T02:51:44.391Z,93898.66
2017-11-19T02:54:12.211Z,93903.41
2017-11-19T02:56:40.023Z,93897.33
2017-11-19T02:59:07.762Z,93891.27
2017-11-19T03:01:35.498Z,93885.36
2017-11-19T03:04:03.166Z,93889.08
2017-11-19T03:06:30.914Z,93886.27
2017-11-19T03:08:58.683Z,93885.15
2017-11-19T03:11:26.391Z,93882.31
2017-11-19T03:13:54.143Z,93879.92
2017-11-19T03:16:21.842Z,93884.59
2017-11-19T03:18:49.576Z,93882.67
2017-11-19T03:21:17.326Z,93879.43
2017-11-19T03:23:45.006Z,93870.69
2017-11-19T03:26:12.823Z,93871.73
2017-11-19T03:28:40.548Z,93875.89
2017-11-19T03:31:08.312Z,93876.91
2017-11-19T03:33:36.028Z,93870.77
2017-11-19T03:36:03.717Z,93863.25
2017-11-19T03:38:31.585Z,93873.81
2017-11-19T03:40:59.307Z,93864.28
2017-11-19T03:43:27.030Z,93861.29
2017-11-19T03:45:54.726Z,93861.23
2017-11-19T03:48:22.479Z,93857.59
2017-11-19T03:50:50.186Z,93857.14
2017-11-19T03:53:17.925Z,93853.77
2017-11-19T03:55:45.602Z,93851.19
2017-11-19T03:58:13.311Z,93850.05
2017-11-19T04:00:41.044Z,93849.55
2017-11-19T04:03:08.806Z,93845.38
2017-11-19T04:05:36.593Z,93838.51
2017-11-19T04:08:04.305Z,93828.98
2017-11-19T04:10:32.011Z,93831.41
2017-11-19T04:12:59.791Z,93823.53
2017-11-19T04:15:27.495Z,93822.74
2017-11-19T04:17:55.212Z,93826.72
2017-11-19T04:20:22.920Z,93825.76
2017-11-19T04:22:50.607Z,93823.36
2017-11-19T04:25:18.355Z,93817.57
2017-11-19T04:27:46.263Z,93818.02
2017-11-19T04:30:14.027Z,93820.13
2017-11-19T04:32:41.800Z,93812.31
2017-11-19T04:35:09.517Z,93821.02
2017-11-19T04:37:37.285Z,93817.16
2017-11-19T04:40:04.979Z,93816.28
2017-11-19T04:42:32.686Z,93809.12
2017-11-19T04:45:00.411Z,93806.11
2017-11-19T04:47:28.146Z,93821.33
2017-11-19T04:49:55.891Z,93814.45
2017-11-19T04:52:23.617Z,93813.56
2017-11-19T04:54:51.370Z,93817.38
2017-11-19T04:57:19.067Z,93819.59
2017-11-19T04:59:46.800Z,93815.66
2017-11-19T05:02:14.519Z,93818.36
2017-11-19T05:04:42.191Z,93825.97
2017-11-19T05:07:09.906Z,93828.94
2017-11-19T05:09:37.686Z,93828.63
2017-11-19T05:12:05.427Z,93820.41
2017-11-19T05:14:33.249Z,93819.56
2017-11-19T05:17:01.014Z,93831.94
2017-11-19T05:19:28.759Z,93824.65
2017-11-19T05:21:56.497Z,93833.33
2017-11-19T05:24:24.279Z,93833.45
2017-11-19T05:26:52.013Z,93839.70
2017-11-19T05:29:19.793Z,93833.84
2017-11-19T05:31:47.536Z,93837.67
2017-11-19T05:34:15.251Z,93842.00
2017-11-19T05:36:43.026Z,93838.95
2017-11-19T05:39:10.747Z,93833.16
2017-11-19T05:41:38.549Z,93830.94
2017-11-19T05:44:06.324Z,93831.44
2017-11-19T05:46:34.784Z,93828.34
2017-11-19T05:49:02.551Z,93821.80
2017-11-19T05:51:30.249Z,93812.52
2017-11-19T05:53:58.074Z,93814.50
2017-11-19T05:56:25.864Z,93814.72
2017-11-19T05:58:53.624Z,93808.05
2017-11-19T06:01:21.389Z,93814.64
2017-11-19T06:03:49.120Z,93815.88
2017-11-19T06:06:16.824Z,93804.81
2017-11-19T06:08:44.617Z,93805.70
2017-11-19T06:11:12.337Z,93802.11
2017-11-19T06:13:40.032Z,93799.16
2017-11-19T06:16:07.882Z,93807.14
2017-11-19T06:18:35.594Z,93802.61
2017-11-19T06:21:03.272Z,93803.31
2017-11-19T06:23:31.016Z,93807.30
2017-11-19T06:25:58.789Z,93800.25
2017-11-19T06:28:26.523Z,93798.61
2017-11-19T06:30:54.300Z,93797.28
2017-11-19T06:33:22.078Z,93799.53
2017-11-19T06:35:49.820Z,93796.48
2017-11-19T06:38:17.552Z,93788.00
2017-11-19T06:40:45.245Z,93796.57
2017-11-19T06:43:13.055Z,93793.34
2017-11-19T06:45:40.827Z,93796.47
2017-11-19T06:48:08.715Z,93793.41
2017-11-19T06:50:36.740Z,93798.93
2017-11-19T06:53:04.483Z,93792.47
2017-11-19T06:55:32.249Z,93786.12
2017-11-19T06:57:59.978Z,93788.46
2017-11-19T07:00:27.696Z,93788.02
2017-11-19T07:02:55.480Z,93787.56
2017-11-19T07:05:23.253Z,93791.53
2017-11-19T07:07:51.092Z,93787.80
2017-11-19T07:10:18.848Z,93785.33
2017-11-19T07:12:46.677Z,93790.84
2017-11-19T07:15:14.532Z,93790.92
2017-11-19T07:17:42.369Z,93786.94
2017-11-19T07:20:10.221Z,93796.59
2017-11-19T07:22:37.946Z,93799.59
2017-11-19T07:25:05.842Z,93795.70
2017-11-19T07:27:33.707Z,93790.11
2017-11-19T07:30:01.522Z,93795.78
2017-11-19T07:32:29.415Z,93800.91
2017-11-19T07:34:57.196Z,93799.75
2017-11-19T07:37:24.922Z,93798.87
2017-11-19T07:39:53.488Z,93798.72
2017-11-19T07:42:21.402Z,93802.85
2017-11-19T07:44:49.932Z,93805.55
2017-11-19T07:47:17.700Z,93801.66
2017-11-19T07:49:45.493Z,93800.20
2017-11-19T07:52:14.135Z,93801.30
2017-11-19T07:54:42.004Z,93801.40
2017-11-19T07:57:09.964Z,93801.17
2017-11-19T07:59:37.702Z,93792.35
2017-11-19T08:02:05.463Z,93791.07
2017-11-19T08:04:33.266Z,93788.15
2017-11-19T08:07:01.002Z,93795.00
2017-11-19T08:09:28.765Z,93796.52
2017-11-19T08:11:56.535Z,93797.98
2017-11-19T08:14:24.354Z,93794.58
2017-11-19T08:16:52.344Z,93786.61
2017-11-19T08:19:20.079Z,93790.81
2017-11-19T08:21:47.886Z,93784.53
2017-11-19T08:24:16.671Z,93778.50
2017-11-19T08:26:44.395Z,93771.16
2017-11-19T08:29:12.157Z,93766.83
2017-11-19T08:31:39.936Z,93753.36
2017-11-19T08:34:07.963Z,93761.69
2017-11-19T08:36:35.964Z,93757.33
2017-11-19T08:39:04.394Z,93747.14
2017-11-19T08:41:32.561Z,93738.92
2017-11-19T08:44:00.419Z,93737.22
2017-11-19T08:46:28.220Z,93745.56
2017-11-19T08:48:56.065Z,93748.31
2017-11-19T08:51:23.888Z,93734.95
2017-11-19T08:53:51.725Z,93738.15
2017-11-19T08:56:20.006Z,93730.37
2017-11-19T08:58:49.014Z,93722.31
2017-11-19T09:01:17.480Z,93729.41
2017-11-19T09:03:45.368Z,93728.97
2017-11-19T09:06:13.395Z,93733.79
2017-11-19T09:08:41.246Z,93732.25
2017-11-19T09:11:08.965Z,93737.34
2017-11-19T09:13:37.510Z,93737.64
2017-11-19T09:16:05.351Z,93737.05
2017-11-19T09:18:33.127Z,93731.59
2017-11-19T09:21:00.912Z,93734.08
2017-11-19T09:23:28.689Z,93740.38
2017-11-19T09:25:56.417Z,93749.08
2017-11-19T09:28:24.213Z,93742.61
2017-11-19T09:30:51.983Z,93746.78
2017-11-19T09:33:19.858Z,93752.47
2017-11-19T09:35:47.632Z,93752.17
2017-11-19T09:38:15.481Z,93751.20
2017-11-19T09:40:43.737Z,93749.31
2017-11-19T09:43:11.508Z,93759.39
2017-11-19T09:45:39.298Z,93750.71
2017-11-19T09:48:07.128Z,93753.48
2017-11-19T09:50:34.970Z,93759.54
2017-11-19T09:53:02.792Z,93753.23
2017-11-19T09:55:30.565Z,93749.06
2017-11-19T09:57:58.384Z,93745.69
2017-11-19T10:00:26.225Z,93746.62
2017-11-19T10:02:53.978Z,93742.55
2017-11-19T10:05:21.880Z,93739.11
2017-11-19T10:07:50.912Z,93743.55
2017-11-19T10:10:18.817Z,93740.16
2017-11-19T10:12:46.680Z,93737.67
2017-11-19T10:15:14.382Z,93736.14
2017-11-19T10:17:42.148Z,93738.33
2017-11-19T10:20:09.939Z,93732.71
2017-11-19T10:22:37.664Z,93737.88
2017-11-19T10:25:05.487Z,93738.42
2017-11-19T10:27:33.307Z,93727.67
2017-11-19T10:30:01.077Z,93723.33
2017-11-19T10:32:28.875Z,93716.52
2017-11-19T10:34:56.640Z,93728.23
2017-11-19T10:37:24.440Z,93723.70
2017-11-19T10:39:52.372Z,93723.91
2017-11-19T10:42:20.123Z,93723.52
2017-11-19T10:44:48.556Z,93714.65
2017-11-19T10:47:16.331Z,93709.08
2017-11-19T10:49:44.145Z,93697.19
2017-11-19T10:52:11.980Z,93698.20
2017-11-19T10:54:39.777Z,93694.70
2017-11-19T10:57:07.565Z,93691.66
2017-11-19T10:59:35.457Z,93691.82
2017-11-19T11:02:03.225Z,93692.70
2017-11-19T11:04:30.984Z,93692.39
2017-11-19T11:06:58.954Z,93701.05
2017-11-19T11:09:26.738Z,93701.41
2017-11-19T11:11:55.527Z,93705.45
2017-11-19T11:14:23.385Z,93712.16
2017-11-19T11:16:51.174Z,93723.53
2017-11-19T11:19:18.975Z,93717.04
2017-11-19T11:21:46.691Z,93723.17
2017-11-19T11:24:14.445Z,93719.00
2017-11-19T11:26:42.176Z,93709.69
2017-11-19T11:29:09.975Z,93711.48
2017-11-19T11:31:37.722Z,93708.09
2017-11-19T11:34:05.539Z,93714.88
2017-11-19T11:36:33.237Z,93720.10
2017-11-19T11:39:01.003Z,93726.27
2017-11-19T11:41:28.756Z,93725.70
2017-11-19T11:43:56.504Z,93726.31
2017-11-19T11:46:24.221Z,93736.90
2017-11-19T11:48:52.010Z,93730.25
2017-11-19T11:51:19.729Z,93733.47
2017-11-19T11:53:47.514Z,93729.55
2017-11-19T11:56:15.466Z,93737.20
2017-11-19T11:58:43.198Z,93741.88
2017-11-19T12:01:11.113Z,93738.70
2017-11-19T12:03:38.820Z,93734.03
2017-11-19T12:06:06.539Z,93735.27
2017-11-19T12:08:34.377Z,93744.23
2017-11-19T12:11:02.094Z,93748.44
2017-11-19T12:13:29.825Z,93752.39
2017-11-19T12:15:57.588Z,93756.84
2017-11-19T12:18:25.942Z,93752.50
2017-11-19T12:20:53.778Z,93760.38
2017-11-19T12:23:21.613Z,93750.25
2017-11-19T12:25:49.429Z,93760.81
2017-11-19T12:28:17.386Z,93762.69
2017-11-19T12:30:45.168Z,93770.11
2017-11-19T12:33:13.000Z,93760.63
2017-11-19T12:35:40.702Z,93769.44
2017-11-19T12:38:08.720Z,93777.48
2017-11-19T12:43:34.673Z,93773.01
2017-11-19T12:46:02.451Z,93778.52
2017-11-19T12:48:30.197Z,93777.09
2017-11-19T12:50:57.965Z,93778.02
2017-11-19T12:53:25.760Z,93780.22
2017-11-19T12:55:53.544Z,93784.17
2017-11-19T12:58:21.292Z,93782.23
2017-11-19T13:00:49.129Z,93784.38
2017-11-19T13:03:16.889Z,93780.84
2017-11-19T13:05:44.652Z,93783.05
2017-11-19T13:08:12.451Z,93783.70
2017-11-19T13:10:40.166Z,93774.12
2017-11-19T13:13:07.894Z,93781.48
2017-11-19T13:15:35.749Z,93775.64
2017-11-19T13:18:03.478Z,93779.95
2017-11-19T13:20:31.290Z,93782.23
2017-11-19T13:22:59.108Z,93782.79
2017-11-19T13:25:26.873Z,93792.19
2017-11-19T13:27:55.500Z,93789.33
2017-11-19T13:30:23.242Z,93800.64
2017-11-19T13:32:51.120Z,93795.90
2017-11-19T13:35:18.823Z,93794.47
2017-11-19T13:37:46.633Z,93793.70
2017-11-19T13:40:14.422Z,93798.27
2017-11-19T13:42:42.171Z,93796.97
2017-11-19T13:45:09.945Z,93797.90
2017-11-19T13:47:37.835Z,93804.26
2017-11-19T13:50:05.566Z,93810.97
2017-11-19T13:52:33.264Z,93820.67
2017-11-19T13:55:01.021Z,93818.50
2017-11-19T13:57:28.722Z,93822.05
2017-11-19T13:59:56.406Z,93814.16
2017-11-19T14:02:24.172Z,93830.23
2017-11-19T14:04:51.900Z,93827.39
2017-11-19T14:07:19.639Z,93842.37
2017-11-19T14:09:47.388Z,93831.69
2017-11-19T14:12:15.104Z,93841.25
2017-11-19T14:14:42.822Z,93845.83
2017-11-19T14:17:10.518Z,93843.75
2017-11-19T14:19:38.284Z,93864.89
2017-11-19T14:22:06.003Z,93859.48
2017-11-19T14:24:33.810Z,93866.62
2017-11-19T14:27:01.548Z,93887.37
2017-11-19T14:29:29.342Z,93883.84
2017-11-19T14:31:57.109Z,93886.09
2017-11-19T14:34:24.807Z,93879.98
2017-11-19T14:36:52.602Z,93882.70
2017-11-19T14:39:20.322Z,93883.40
2017-11-19T14:41:48.532Z,93885.88
2017-11-19T14:44:17.225Z,93897.97
2017-11-19T14:46:44.966Z,93892.42
2017-11-19T14:49:12.682Z,93912.71
2017-11-19T14:51:40.444Z,93907.00
2017-11-19T14:54:08.151Z,93911.91
2017-11-19T14:56:35.927Z,93924.09
2017-11-19T14:59:03.681Z,93929.13
2017-11-19T15:01:32.270Z,93936.34
2017-11-19T15:04:00.030Z,93942.84
2017-11-19T15:06:27.779Z,93945.82
2017-11-19T15:08:55.472Z,93950.91
2017-11-19T15:11:23.304Z,93959.72
2017-11-19T15:13:51.143Z,93959.13
2017-11-19T15:16:18.917Z,93959.92
2017-11-19T15:18:46.643Z,93974.69
2017-11-19T15:21:14.493Z,93973.98
2017-11-19T15:23:42.260Z,93989.75
2017-11-19T15:26:10.028Z,93986.01
2017-11-19T15:28:37.742Z,94001.85
2017-11-19T15:31:05.504Z,93991.19
2017-11-19T15:33:33.275Z,93997.92
2017-11-19T15:36:02.138Z,94002.48
2017-11-19T15:38:30.092Z,94017.70
2017-11-19T15:40:57.833Z,94010.42
2017-11-19T15:43:26.358Z,94012.75
2017-11-19T15:45:54.285Z,94010.78
2017-11-19T15:48:22.045Z,94006.09
2017-11-19T15:50:51.367Z,94012.59
2017-11-19T15:53:19.134Z,94013.30
2017-11-19T15:55:46.899Z,94017.73
2017-11-19T15:58:14.691Z,94021.45
2017-11-19T16:00:42.530Z,94024.14
2017-11-19T16:03:10.327Z,94031.75
2017-11-19T16:05:39.257Z,94031.09
2017-11-19T16:08:07.054Z,94041.59
2017-11-19T16:10:37.843Z,94044.88
2017-11-19T16:13:05.760Z,94046.91
2017-11-19T16:15:33.820Z,94048.84
2017-11-19T16:18:02.728Z,94049.45
2017-11-19T16:20:30.523Z,94053.42
2017-11-19T16:22:58.377Z,94044.12
2017-11-19T16:25:26.314Z,94048.95
2017-11-19T16:27:54.245Z,94051.00
2017-11-19T16:30:22.049Z,94051.86
2017-11-19T16:32:49.822Z,94053.64
2017-11-19T16:35:18.413Z,94062.94
2017-11-19T16:37:46.478Z,94071.61
2017-11-19T16:40:14.344Z,94078.37
2017-11-19T16:42:42.115Z,94078.61
2017-11-19T16:45:10.081Z,94076.48
2017-11-19T16:47:37.849Z,94086.95
2017-11-19T16:50:06.698Z,94080.80
2017-11-19T16:52:34.498Z,94072.27
2017-11-19T16:55:02.269Z,94077.83
2017-11-19T16:57:31.085Z,94071.59
2017-11-19T16:59:58.859Z,94070.16
2017-11-19T17:02:26.666Z,94069.88
2017-11-19T17:04:54.453Z,94077.52
2017-11-19T17:07:22.219Z,94068.25
2017-11-19T17:09:50.040Z,94073.30
2017-11-19T17:12:18.890Z,94079.66
2017-11-19T17:14:46.676Z,94066.77
2017-11-19T17:17:14.569Z,94063.99
2017-11-19T17:19:42.293Z,94057.11
2017-11-19T17:22:10.052Z,94080.31
2017-11-19T17:24:37.906Z,94088.70
2017-11-19T17:27:06.459Z,94095.94
2017-11-19T17:29:34.269Z,94097.46
2017-11-19T17:32:02.050Z,94096.00
2017-11-19T17:34:29.830Z,94099.66
2017-11-19T17:36:58.127Z,94101.14
2017-11-19T17:39:25.927Z,94101.75
2017-11-19T17:41:53.774Z,94097.86
2017-11-19T17:44:21.694Z,94100.44
2017-11-19T17:46:49.536Z,94098.86
2017-11-19T17:49:17.375Z,94107.52
2017-11-19T17:51:45.353Z,94101.20
2017-11-19T17:54:13.231Z,94105.45
2017-11-19T17:56:42.119Z,94104.84
2017-11-19T17:59:10.023Z,94115.08
2017-11-19T18:01:38.336Z,94114.45
2017-11-19T18:04:07.554Z,94117.01
2017-11-19T18:06:35.393Z,94118.61
2017-11-19T18:09:04.370Z,94128.38
2017-11-19T18:11:32.440Z,94116.44
2017-11-19T18:14:00.169Z,94114.12
2017-11-19T18:16:28.478Z,94117.78
2017-11-19T18:18:56.298Z,94130.86
2017-11-19T18:21:24.528Z,94136.27
2017-11-19T18:23:52.486Z,94135.23
2017-11-19T18:26:20.301Z,94138.98
2017-11-19T18:28:49.273Z,94141.73
2017-11-19T18:31:17.115Z,94147.32
2017-11-19T18:33:45.696Z,94150.16
2017-11-19T18:36:14.260Z,94150.84
2017-11-19T18:38:43.064Z,94158.45
2017-11-19T18:41:10.869Z,94159.59
2017-11-19T18:43:40.829Z,94163.37
2017-11-19T18:46:08.563Z,94157.52
2017-11-19T18:48:37.395Z,94159.75
2017-11-19T18:51:05.531Z,94158.44
2017-11-19T18:53:33.505Z,94158.05
2017-11-19T18:56:03.430Z,94148.87
2017-11-19T18:58:31.439Z,94158.37
2017-11-19T19:00:59.360Z,94165.21
2017-11-19T19:03:27.913Z,94164.05
2017-11-19T19:05:56.315Z,94161.48
2017-11-19T19:08:24.186Z,94161.91
2017-11-19T19:10:52.124Z,94162.00
2017-11-19T19:13:20.033Z,94158.12
2017-11-19T19:15:47.784Z,94167.41
2017-11-19T19:18:16.523Z,94175.66
2017-11-19T19:20:44.737Z,94181.17
2017-11-19T19:23:15.249Z,94177.18
2017-11-19T19:25:43.651Z,94184.90
2017-11-19T19:28:11.796Z,94191.84
2017-11-19T19:30:39.597Z,94187.53
2017-11-19T19:33:08.707Z,94184.17
2017-11-19T19:35:36.489Z,94178.47
2017-11-19T19:38:05.801Z,94193.03
2017-11-19T19:40:34.339Z,94188.95
2017-11-19T19:43:02.558Z,94194.64
2017-11-19T19:45:31.220Z,94192.56
2017-11-19T19:47:58.946Z,94190.31
2017-11-19T19:50:26.967Z,94191.36
2017-11-19T19:52:54.771Z,94188.08
2017-11-19T19:55:22.525Z,94197.77
2017-11-19T19:57:50.245Z,94191.36
2017-11-19T20:00:18.086Z,94193.44
2017-11-19T20:02:45.878Z,94196.48
2017-11-19T20:05:13.659Z,94197.09
2017-11-19T20:07:41.670Z,94201.20
2017-11-19T20:10:09.378Z,94197.33
2017-11-19T20:12:37.145Z,94208.33
2017-11-19T20:15:04.913Z,94207.48
2017-11-19T20:17:32.694Z,94212.61
2017-11-19T20:20:00.503Z,94221.86
2017-11-19T20:22:28.202Z,94224.97
2017-11-19T20:24:55.956Z,94221.97
2017-11-19T20:27:23.692Z,94222.69
2017-11-19T20:29:51.595Z,94228.34
2017-11-19T20:32:19.297Z,94222.81
2017-11-19T20:34:46.986Z,94222.61
2017-11-19T20:37:15.516Z,94224.90
2017-11-19T20:39:43.248Z,94223.17
2017-11-19T20:42:11.014Z,94224.58
2017-11-19T20:44:39.996Z,94230.14
2017-11-19T20:47:07.900Z,94237.95
2017-11-19T20:49:35.610Z,94237.50
2017-11-19T20:52:03.367Z,94232.38
2017-11-19T20:54:31.188Z,94237.23
2017-11-19T20:56:59.672Z,94239.90
2017-11-19T20:59:27.477Z,94239.90
2017-11-19T21:01:56.442Z,94251.58
2017-11-19T21:04:24.188Z,94249.82
2017-11-19T21:06:52.752Z,94234.42
2017-11-19T21:09:20.696Z,94237.53
2017-11-19T21:11:48.413Z,94243.53
2017-11-19T21:14:16.178Z,94246.06
2017-11-19T21:16:43.936Z,94246.97
2017-11-19T21:19:11.721Z,94247.29
2017-11-19T21:21:39.448Z,94241.61
2017-11-19T21:24:07.276Z,94249.20
2017-11-19T21:26:35.004Z,94247.69
2017-11-19T21:29:03.313Z,94248.70
2017-11-19T21:31:31.055Z,94250.80
2017-11-19T21:33:58.996Z,94247.84
2017-11-19T21:36:26.773Z,94249.82
2017-11-19T21:38:54.529Z,94262.30
2017-11-19T21:41:22.308Z,94256.89
2017-11-19T21:43:50.016Z,94260.16
2017-11-19T21:46:17.761Z,94250.33
2017-11-19T21:48:45.499Z,94260.63
2017-11-19T21:51:13.260Z,94250.65
2017-11-19T21:53:40.984Z,94251.45
2017-11-19T21:56:08.710Z,94249.81
2017-11-19T21:58:36.488Z,94254.14
2017-11-19T22:01:04.226Z,94261.74
2017-11-19T22:03:31.953Z,94264.89
2017-11-19T22:05:59.694Z,94263.59
2017-11-19T22:08:27.408Z,94267.98
2017-11-19T22:10:55.194Z,94269.42
2017-11-19T22:13:22.890Z,94280.41
2017-11-19T22:15:51.117Z,94270.25
2017-11-19T22:18:18.870Z,94250.56
2017-11-19T22:20:46.597Z,94254.64
2017-11-19T22:23:14.348Z,94244.46
2017-11-19T22:25:42.119Z,94253.34
2017-11-19T22:28:09.818Z,94257.42
2017-11-19T22:30:37.513Z,94249.02
2017-11-19T22:33:05.290Z,94252.65
2017-11-19T22:35:32.948Z,94257.91
2017-11-19T22:38:00.642Z,94261.58
2017-11-19T22:40:28.378Z,94258.55
2017-11-19T22:42:56.118Z,94256.22
2017-11-19T22:45:23.813Z,94264.47
2017-11-19T22:47:51.588Z,94262.47
2017-11-19T22:50:19.375Z,94256.97
2017-11-19T22:52:47.089Z,94260.70
2017-11-19T22:55:14.821Z,94262.33
2017-11-19T22:57:42.661Z,94254.89
2017-11-19T23:00:10.388Z,94259.53
2017-11-19T23:02:38.153Z,94247.53
2017-11-19T23:05:05.908Z,94249.13
2017-11-19T23:07:33.619Z,94247.45
2017-11-19T23:10:01.323Z,94238.89
2017-11-19T23:12:29.494Z,94244.09
2017-11-19T23:14:57.189Z,94252.94
2017-11-19T23:17:24.988Z,94249.53
2017-11-19T23:19:52.688Z,94252.89
2017-11-19T23:22:20.418Z,94257.69
2017-11-19T23:24:48.719Z,94257.74
2017-11-19T23:27:16.474Z,94253.42
2017-11-19T23:29:44.178Z,94258.30
2017-11-19T23:32:11.907Z,94242.70
2017-11-19T23:34:39.742Z,94244.70
2017-11-19T23:37:07.535Z,94244.54
2017-11-19T23:39:35.371Z,94239.90
2017-11-19T23:42:03.161Z,94240.16
2017-11-19T23:44:30.932Z,94247.45
2017-11-19T23:46:58.714Z,94237.50
2017-11-19T23:49:26.377Z,94249.10
2017-11-19T23:51:54.090Z,94243.81
2017-11-19T23:54:21.947Z,94252.06
2017-11-19T23:56:49.595Z,94250.78
2017-11-19T23:59:17.281Z,94243.26
